createdAt,value
2023-05-15T00:00:26.859Z,70.23
2023-05-15T00:01:26.828Z,70.23
2023-05-15T00:02:26.909Z,70.23
2023-05-15T00:03:26.966Z,70.12
2023-05-15T00:04:26.907Z,70.12
2023-05-15T00:05:27.038Z,70.12
2023-05-15T00:06:26.767Z,70.23
2023-05-15T00:07:26.764Z,70.23
2023-05-15T00:08:26.757Z,70.23
2023-05-15T00:09:26.762Z,70.23
2023-05-15T00:10:26.766Z,70.23
2023-05-15T00:11:26.716Z,70.23
2023-05-15T00:12:26.709Z,70.12
2023-05-15T00:13:26.697Z,70.23
2023-05-15T00:14:26.685Z,70.23
2023-05-15T00:15:27.020Z,70.23
2023-05-15T00:16:26.752Z,70.23
2023-05-15T00:17:26.710Z,70.23
2023-05-15T00:18:26.711Z,70.23
2023-05-15T00:19:26.629Z,70.23
2023-05-15T00:20:26.658Z,70.23
2023-05-15T00:21:26.607Z,70.23
2023-05-15T00:22:26.602Z,70.23
2023-05-15T00:23:26.619Z,70.23
2023-05-15T00:24:26.579Z,70.12
2023-05-15T00:25:26.921Z,70.12
2023-05-15T00:26:26.569Z,70.12
2023-05-15T00:27:26.575Z,70.12
2023-05-15T00:28:26.554Z,70.23
2023-05-15T00:29:26.554Z,70.23
2023-05-15T00:30:26.530Z,70.12
2023-05-15T00:31:26.559Z,70.23
2023-05-15T00:32:26.501Z,70.23
2023-05-15T00:33:26.492Z,70.23
2023-05-15T00:34:26.517Z,70.23
2023-05-15T00:35:26.694Z,70.23
2023-05-15T00:36:26.460Z,70.23
2023-05-15T00:37:26.446Z,70.23
2023-05-15T00:38:26.480Z,70.23
2023-05-15T00:39:26.422Z,70.23
2023-05-15T00:40:26.415Z,70.23
2023-05-15T00:41:26.428Z,70.23
2023-05-15T00:42:26.395Z,70.23
2023-05-15T00:43:26.424Z,70.23
2023-05-15T00:44:26.418Z,70.23
2023-05-15T00:45:26.644Z,70.23
2023-05-15T00:46:26.382Z,70.23
2023-05-15T00:47:26.403Z,70.23
2023-05-15T00:48:26.331Z,70.23
2023-05-15T00:49:26.362Z,70.23
2023-05-15T00:50:26.312Z,70.23
2023-05-15T00:51:26.300Z,70.23
2023-05-15T00:52:26.288Z,70.23
2023-05-15T00:53:26.303Z,70.23
2023-05-15T00:54:26.306Z,70.23
2023-05-15T00:55:26.476Z,70.23
2023-05-15T00:56:26.254Z,70.23
2023-05-15T00:57:26.261Z,70.23
2023-05-15T00:58:26.263Z,70.23
2023-05-15T00:59:26.216Z,70.23
2023-05-15T01:00:26.208Z,70.23
2023-05-15T01:01:26.237Z,70.23
2023-05-15T01:02:26.232Z,70.23
2023-05-15T01:03:26.258Z,70.23
2023-05-15T01:04:26.167Z,70.23
2023-05-15T01:05:26.409Z,70.23
2023-05-15T01:06:26.180Z,70.23
2023-05-15T01:07:26.140Z,70.23
2023-05-15T01:08:26.117Z,70.23
2023-05-15T01:09:26.150Z,70.23
2023-05-15T01:10:26.100Z,70.23
2023-05-15T01:11:26.092Z,70.23
2023-05-15T01:12:26.076Z,70.23
2023-05-15T01:13:26.127Z,70.23
2023-05-15T01:14:26.101Z,70.23
2023-05-15T01:15:26.361Z,70.23
2023-05-15T01:16:26.038Z,70.23
2023-05-15T01:17:26.031Z,70.23
2023-05-15T01:18:26.346Z,70.23
2023-05-15T01:19:26.174Z,70.23
2023-05-15T01:20:26.033Z,70.32
2023-05-15T01:21:25.983Z,70.32
2023-05-15T01:22:25.974Z,70.32
2023-05-15T01:23:25.959Z,70.23
2023-05-15T01:24:25.956Z,70.23
2023-05-15T01:25:26.224Z,70.32
2023-05-15T01:26:25.968Z,70.32
2023-05-15T01:27:25.919Z,70.32
2023-05-15T01:28:25.908Z,70.23
2023-05-15T01:29:25.924Z,70.23
2023-05-15T01:30:25.892Z,70.23
2023-05-15T01:31:25.962Z,70.23
2023-05-15T01:32:26.021Z,70.23
2023-05-15T01:33:25.864Z,70.23
2023-05-15T01:34:25.845Z,70.23
2023-05-15T01:35:26.103Z,70.23
2023-05-15T01:36:25.822Z,70.23
2023-05-15T01:37:25.853Z,70.23
2023-05-15T01:38:25.803Z,70.23
2023-05-15T01:39:25.793Z,70.23
2023-05-15T01:40:25.819Z,70.23
2023-05-15T01:41:25.776Z,70.23
2023-05-15T01:42:25.797Z,70.23
2023-05-15T01:43:25.763Z,70.32
2023-05-15T01:44:25.748Z,70.32
2023-05-15T01:45:26.110Z,70.32
2023-05-15T01:46:25.766Z,70.32
2023-05-15T01:47:25.751Z,70.23
2023-05-15T01:48:25.695Z,70.23
2023-05-15T01:49:25.691Z,70.32
2023-05-15T01:50:25.672Z,70.32
2023-05-15T01:51:25.708Z,70.32
2023-05-15T01:52:25.695Z,70.32
2023-05-15T01:53:25.641Z,70.32
2023-05-15T01:54:25.638Z,70.32
2023-05-15T01:55:25.854Z,70.23
2023-05-15T01:56:25.665Z,70.23
2023-05-15T01:57:25.602Z,70.23
2023-05-15T01:58:25.584Z,70.23
2023-05-15T01:59:25.577Z,70.23
2023-05-15T02:00:25.566Z,70.23
2023-05-15T02:01:25.674Z,70.23
2023-05-15T02:02:25.640Z,70.23
2023-05-15T02:03:25.705Z,70.23
2023-05-15T02:04:25.523Z,70.23
2023-05-15T02:05:25.901Z,70.23
2023-05-15T02:06:25.531Z,70.23
2023-05-15T02:07:25.492Z,70.32
2023-05-15T02:08:25.542Z,70.32
2023-05-15T02:09:25.468Z,70.32
2023-05-15T02:10:25.460Z,70.32
2023-05-15T02:11:25.499Z,70.32
2023-05-15T02:12:25.471Z,70.32
2023-05-15T02:13:25.467Z,70.32
2023-05-15T02:14:25.425Z,70.23
2023-05-15T02:15:25.732Z,70.32
2023-05-15T02:16:25.482Z,70.32
2023-05-15T02:17:25.418Z,70.32
2023-05-15T02:18:25.411Z,70.32
2023-05-15T02:19:25.368Z,70.32
2023-05-15T02:20:25.357Z,70.32
2023-05-15T02:21:25.353Z,70.32
2023-05-15T02:22:25.342Z,70.32
2023-05-15T02:23:25.363Z,70.32
2023-05-15T02:24:25.315Z,70.32
2023-05-15T02:25:25.682Z,70.32
2023-05-15T02:26:25.298Z,70.32
2023-05-15T02:27:25.324Z,70.32
2023-05-15T02:28:25.315Z,70.32
2023-05-15T02:29:25.260Z,70.32
2023-05-15T02:30:25.248Z,70.32
2023-05-15T02:31:25.275Z,70.32
2023-05-15T02:32:25.250Z,70.32
2023-05-15T02:33:25.289Z,70.32
2023-05-15T02:34:25.208Z,70.32
2023-05-15T02:35:25.403Z,70.32
2023-05-15T02:36:25.187Z,70.32
2023-05-15T02:37:25.181Z,70.32
2023-05-15T02:38:25.205Z,70.32
2023-05-15T02:39:25.154Z,70.32
2023-05-15T02:40:25.149Z,70.32
2023-05-15T02:41:25.182Z,70.32
2023-05-15T02:42:25.122Z,70.32
2023-05-15T02:43:25.113Z,70.32
2023-05-15T02:44:25.099Z,70.32
2023-05-15T02:45:25.335Z,70.32
2023-05-15T02:46:25.503Z,70.32
2023-05-15T02:47:25.107Z,70.32
2023-05-15T02:48:25.058Z,70.32
2023-05-15T02:49:25.109Z,70.32
2023-05-15T02:50:25.036Z,70.32
2023-05-15T02:51:25.026Z,70.32
2023-05-15T02:52:25.016Z,70.32
2023-05-15T02:53:25.004Z,70.32
2023-05-15T02:54:25.052Z,70.32
2023-05-15T02:55:25.276Z,70.32
2023-05-15T02:56:24.982Z,70.32
2023-05-15T02:57:24.960Z,70.32
2023-05-15T02:58:24.953Z,70.32
2023-05-15T02:59:24.975Z,70.43
2023-05-15T03:00:24.932Z,70.43
2023-05-15T03:01:24.951Z,70.32
2023-05-15T03:02:24.942Z,70.32
2023-05-15T03:03:24.895Z,70.32
2023-05-15T03:04:24.974Z,70.32
2023-05-15T03:05:25.148Z,70.32
2023-05-15T03:06:24.871Z,70.32
2023-05-15T03:07:24.859Z,70.32
2023-05-15T03:08:24.846Z,70.43
2023-05-15T03:09:24.875Z,70.32
2023-05-15T03:10:24.826Z,70.32
2023-05-15T03:11:24.813Z,70.43
2023-05-15T03:12:24.804Z,70.43
2023-05-15T03:13:24.789Z,70.43
2023-05-15T03:14:24.794Z,70.43
2023-05-15T03:15:25.028Z,70.43
2023-05-15T03:16:24.777Z,70.43
2023-05-15T03:17:24.764Z,70.43
2023-05-15T03:18:24.737Z,70.43
2023-05-15T03:19:24.776Z,70.43
2023-05-15T03:20:24.721Z,70.32
2023-05-15T03:21:24.753Z,70.32
2023-05-15T03:22:24.739Z,70.43
2023-05-15T03:23:24.685Z,70.43
2023-05-15T03:24:24.674Z,70.43
2023-05-15T03:25:24.871Z,70.43
2023-05-15T03:26:24.700Z,70.43
2023-05-15T03:27:24.647Z,70.43
2023-05-15T03:28:24.631Z,70.43
2023-05-15T03:29:24.629Z,70.43
2023-05-15T03:30:24.613Z,70.43
2023-05-15T03:31:24.711Z,70.43
2023-05-15T03:32:24.623Z,70.43
2023-05-15T03:33:24.592Z,70.43
2023-05-15T03:34:24.568Z,70.43
2023-05-15T03:35:24.800Z,70.43
2023-05-15T03:36:24.548Z,70.43
2023-05-15T03:37:24.648Z,70.43
2023-05-15T03:38:24.524Z,70.43
2023-05-15T03:39:24.522Z,70.43
2023-05-15T03:40:24.517Z,70.43
2023-05-15T03:41:24.511Z,70.43
2023-05-15T03:42:24.543Z,70.43
2023-05-15T03:43:24.476Z,70.43
2023-05-15T03:44:24.469Z,70.43
2023-05-15T03:45:24.665Z,70.43
2023-05-15T03:46:24.530Z,70.43
2023-05-15T03:47:24.469Z,70.43
2023-05-15T03:48:24.456Z,70.43
2023-05-15T03:49:24.409Z,70.43
2023-05-15T03:50:24.448Z,70.43
2023-05-15T03:51:24.408Z,70.43
2023-05-15T03:52:24.390Z,70.43
2023-05-15T03:53:24.399Z,70.43
2023-05-15T03:54:24.358Z,70.43
2023-05-15T03:55:24.500Z,70.43
2023-05-15T03:56:24.379Z,70.43
2023-05-15T03:57:24.326Z,70.43
2023-05-15T03:58:24.322Z,70.43
2023-05-15T03:59:24.306Z,70.43
2023-05-15T04:00:24.628Z,70.43
2023-05-15T04:01:24.333Z,70.43
2023-05-15T04:02:24.310Z,70.43
2023-05-15T04:03:24.550Z,70.43
2023-05-15T04:04:24.293Z,70.53
2023-05-15T04:05:24.457Z,70.53
2023-05-15T04:06:24.273Z,70.53
2023-05-15T04:07:24.220Z,70.53
2023-05-15T04:08:24.214Z,70.53
2023-05-15T04:09:24.235Z,70.53
2023-05-15T04:10:24.515Z,70.43
2023-05-15T04:11:24.222Z,70.43
2023-05-15T04:12:24.180Z,70.43
2023-05-15T04:13:24.161Z,70.43
2023-05-15T04:14:24.152Z,70.43
2023-05-15T04:15:24.360Z,70.43
2023-05-15T04:16:24.230Z,70.43
2023-05-15T04:17:24.150Z,70.43
2023-05-15T04:18:24.106Z,70.53
2023-05-15T04:19:24.103Z,70.43
2023-05-15T04:20:24.176Z,70.43
2023-05-15T04:21:24.073Z,70.43
2023-05-15T04:22:24.067Z,70.43
2023-05-15T04:23:24.059Z,70.53
2023-05-15T04:24:24.040Z,70.53
2023-05-15T04:25:24.248Z,70.53
2023-05-15T04:26:24.059Z,70.53
2023-05-15T04:27:24.050Z,70.53
2023-05-15T04:28:23.996Z,70.53
2023-05-15T04:29:23.988Z,70.53
2023-05-15T04:30:23.980Z,70.53
2023-05-15T04:31:23.994Z,70.53
2023-05-15T04:32:24.088Z,70.53
2023-05-15T04:33:23.946Z,70.53
2023-05-15T04:34:23.936Z,70.53
2023-05-15T04:35:24.084Z,70.43
2023-05-15T04:36:23.918Z,70.53
2023-05-15T04:37:23.940Z,70.43
2023-05-15T04:38:23.891Z,70.53
2023-05-15T04:39:23.883Z,70.53
2023-05-15T04:40:23.888Z,70.53
2023-05-15T04:41:23.885Z,70.53
2023-05-15T04:42:23.905Z,70.53
2023-05-15T04:43:23.841Z,70.53
2023-05-15T04:44:23.839Z,70.53
2023-05-15T04:45:24.002Z,70.53
2023-05-15T04:46:23.872Z,70.53
2023-05-15T04:47:23.864Z,70.43
2023-05-15T04:48:23.821Z,70.53
2023-05-15T04:49:23.778Z,70.53
2023-05-15T04:50:23.988Z,70.53
2023-05-15T04:51:23.755Z,70.53
2023-05-15T04:52:23.746Z,70.43
2023-05-15T04:53:23.774Z,70.53
2023-05-15T04:54:23.723Z,70.53
2023-05-15T04:55:24.074Z,70.53
2023-05-15T04:56:23.759Z,70.53
2023-05-15T04:57:23.736Z,70.53
2023-05-15T04:58:23.682Z,70.53
2023-05-15T04:59:23.671Z,70.53
2023-05-15T05:00:23.696Z,70.53
2023-05-15T05:01:23.713Z,70.53
2023-05-15T05:02:23.716Z,70.53
2023-05-15T05:03:23.694Z,70.53
2023-05-15T05:04:23.618Z,70.53
2023-05-15T05:05:23.907Z,70.53
2023-05-15T05:06:23.600Z,70.53
2023-05-15T05:07:23.591Z,70.53
2023-05-15T05:08:23.628Z,70.53
2023-05-15T05:09:23.569Z,70.53
2023-05-15T05:10:23.562Z,70.53
2023-05-15T05:11:23.544Z,70.53
2023-05-15T05:12:23.833Z,70.53
2023-05-15T05:13:23.589Z,70.53
2023-05-15T05:14:23.515Z,70.53
2023-05-15T05:15:23.711Z,70.53
2023-05-15T05:16:23.574Z,70.53
2023-05-15T05:17:23.560Z,70.53
2023-05-15T05:18:23.473Z,70.53
2023-05-15T05:19:23.464Z,70.53
2023-05-15T05:20:23.450Z,70.53
2023-05-15T05:21:23.491Z,70.53
2023-05-15T05:22:23.429Z,70.53
2023-05-15T05:23:23.422Z,70.53
2023-05-15T05:24:23.449Z,70.53
2023-05-15T05:25:23.526Z,70.53
2023-05-15T05:26:23.432Z,70.53
2023-05-15T05:27:23.381Z,70.53
2023-05-15T05:28:23.366Z,70.53
2023-05-15T05:29:23.428Z,70.53
2023-05-15T05:30:23.351Z,70.53
2023-05-15T05:31:23.416Z,70.53
2023-05-15T05:32:23.356Z,70.53
2023-05-15T05:33:23.315Z,70.53
2023-05-15T05:34:23.345Z,70.53
2023-05-15T05:35:23.507Z,70.53
2023-05-15T05:36:23.304Z,70.53
2023-05-15T05:37:23.273Z,70.53
2023-05-15T05:38:23.259Z,70.53
2023-05-15T05:39:23.250Z,70.43
2023-05-15T05:40:23.280Z,70.53
2023-05-15T05:41:23.232Z,70.53
2023-05-15T05:42:23.217Z,70.53
2023-05-15T05:43:23.207Z,70.53
2023-05-15T05:44:23.195Z,70.53
2023-05-15T05:45:23.644Z,70.53
2023-05-15T05:46:23.195Z,70.53
2023-05-15T05:47:23.222Z,70.53
2023-05-15T05:48:23.157Z,70.53
2023-05-15T05:49:23.140Z,70.53
2023-05-15T05:50:23.133Z,70.53
2023-05-15T05:51:23.118Z,70.53
2023-05-15T05:52:23.128Z,70.53
2023-05-15T05:53:23.142Z,70.53
2023-05-15T05:54:23.089Z,70.53
2023-05-15T05:55:23.301Z,70.53
2023-05-15T05:56:23.109Z,70.53
2023-05-15T05:57:23.063Z,70.53
2023-05-15T05:58:25.893Z,70.53
2023-05-15T05:59:23.036Z,70.53
2023-05-15T06:00:23.027Z,70.53
2023-05-15T06:01:23.086Z,70.53
2023-05-15T06:02:23.060Z,70.53
2023-05-15T06:03:23.122Z,70.53
2023-05-15T06:04:23.038Z,70.53
2023-05-15T06:05:23.171Z,70.53
2023-05-15T06:06:23.012Z,70.53
2023-05-15T06:07:22.974Z,70.53
2023-05-15T06:08:22.946Z,70.53
2023-05-15T06:09:22.936Z,70.53
2023-05-15T06:10:23.110Z,70.53
2023-05-15T06:11:25.127Z,70.53
2023-05-15T06:12:23.137Z,70.53
2023-05-15T06:13:22.896Z,70.53
2023-05-15T06:14:22.902Z,70.53
2023-05-15T06:15:22.959Z,70.53
2023-05-15T06:16:22.931Z,70.53
2023-05-15T06:17:22.937Z,70.53
2023-05-15T06:18:22.834Z,70.53
2023-05-15T06:19:22.904Z,70.53
2023-05-15T06:20:22.994Z,70.53
2023-05-15T06:21:22.868Z,70.53
2023-05-15T06:22:22.791Z,70.53
2023-05-15T06:23:24.352Z,70.53
2023-05-15T06:24:22.773Z,70.53
2023-05-15T06:25:22.775Z,70.53
2023-05-15T06:26:22.762Z,70.53
2023-05-15T06:27:22.783Z,70.53
2023-05-15T06:28:22.749Z,70.53
2023-05-15T06:29:22.720Z,70.53
2023-05-15T06:30:22.881Z,70.53
2023-05-15T06:31:22.793Z,70.53
2023-05-15T06:32:22.825Z,70.53
2023-05-15T06:33:22.704Z,70.53
2023-05-15T06:34:22.670Z,70.53
2023-05-15T06:35:22.660Z,70.53
2023-05-15T06:36:22.690Z,70.53
2023-05-15T06:37:22.673Z,70.53
2023-05-15T06:38:22.628Z,70.53
2023-05-15T06:39:22.618Z,70.53
2023-05-15T06:40:22.683Z,70.53
2023-05-15T06:41:22.608Z,70.53
2023-05-15T06:42:22.634Z,70.53
2023-05-15T06:43:22.573Z,70.53
2023-05-15T06:44:23.654Z,70.43
2023-05-15T06:45:22.789Z,70.43
2023-05-15T06:46:22.649Z,70.43
2023-05-15T06:47:22.586Z,70.53
2023-05-15T06:48:22.592Z,70.53
2023-05-15T06:49:22.550Z,70.53
2023-05-15T06:50:22.499Z,70.43
2023-05-15T06:51:22.492Z,70.43
2023-05-15T06:52:22.485Z,70.43
2023-05-15T06:53:22.511Z,70.53
2023-05-15T06:54:22.456Z,70.43
2023-05-15T06:55:22.485Z,70.53
2023-05-15T06:56:22.480Z,70.53
2023-05-15T06:57:22.437Z,70.63
2023-05-15T06:58:22.415Z,70.63
2023-05-15T06:59:22.411Z,70.63
2023-05-15T07:00:22.406Z,70.63
2023-05-15T07:01:22.399Z,70.63
2023-05-15T07:02:22.445Z,70.63
2023-05-15T07:03:22.401Z,70.63
2023-05-15T07:04:22.405Z,70.73
2023-05-15T07:05:22.542Z,70.73
2023-05-15T07:06:22.329Z,70.83
2023-05-15T07:07:22.319Z,70.83
2023-05-15T07:08:22.344Z,70.83
2023-05-15T07:09:22.348Z,70.93
2023-05-15T07:10:22.318Z,70.89
2023-05-15T07:11:22.278Z,70.89
2023-05-15T07:12:22.268Z,70.89
2023-05-15T07:13:22.296Z,70.89
2023-05-15T07:14:22.299Z,70.89
2023-05-15T07:15:22.235Z,70.89
2023-05-15T07:16:22.221Z,70.89
2023-05-15T07:17:22.236Z,70.89
2023-05-15T07:18:22.296Z,70.89
2023-05-15T07:19:22.278Z,70.89
2023-05-15T07:20:22.197Z,70.89
2023-05-15T07:21:22.359Z,70.89
2023-05-15T07:22:22.163Z,70.89
2023-05-15T07:23:22.186Z,70.89
2023-05-15T07:24:22.183Z,70.89
2023-05-15T07:25:22.150Z,70.79
2023-05-15T07:26:32.530Z,70.89
2023-05-15T07:27:23.152Z,70.59
2023-05-15T07:28:22.101Z,70.70
2023-05-15T07:29:22.083Z,70.70
2023-05-15T07:30:22.158Z,70.79
2023-05-15T07:31:22.124Z,70.79
2023-05-15T07:32:22.118Z,70.79
2023-05-15T07:33:22.084Z,70.79
2023-05-15T07:34:22.043Z,70.79
2023-05-15T07:35:22.027Z,70.79
2023-05-15T07:36:22.024Z,70.79
2023-05-15T07:37:22.040Z,70.79
2023-05-15T07:38:22.104Z,70.79
2023-05-15T07:39:22.007Z,70.79
2023-05-15T07:40:21.972Z,70.79
2023-05-15T07:41:21.994Z,70.79
2023-05-15T07:42:21.950Z,70.79
2023-05-15T07:43:21.973Z,70.79
2023-05-15T07:44:21.979Z,70.79
2023-05-15T07:45:21.973Z,70.79
2023-05-15T07:46:21.971Z,70.70
2023-05-15T07:47:21.896Z,70.70
2023-05-15T07:48:21.897Z,70.70
2023-05-15T07:49:21.925Z,70.70
2023-05-15T07:50:21.859Z,70.59
2023-05-15T07:51:21.856Z,70.70
2023-05-15T07:52:21.840Z,70.59
2023-05-15T07:53:21.915Z,70.59
2023-05-15T07:54:21.835Z,70.59
2023-05-15T07:55:21.851Z,70.59
2023-05-15T07:56:21.813Z,70.70
2023-05-15T07:57:21.791Z,70.70
2023-05-15T07:58:21.791Z,70.70
2023-05-15T07:59:21.835Z,70.70
2023-05-15T08:00:21.802Z,70.70
2023-05-15T08:01:21.749Z,70.70
2023-05-15T08:02:21.830Z,70.70
2023-05-15T08:03:21.864Z,70.79
2023-05-15T08:04:21.766Z,70.89
2023-05-15T08:05:21.705Z,71.00
2023-05-15T08:06:21.733Z,71.09
2023-05-15T08:07:21.715Z,71.30
2023-05-15T08:08:21.669Z,71.30
2023-05-15T08:09:21.782Z,71.30
2023-05-15T08:10:21.703Z,71.40
2023-05-15T08:11:21.652Z,71.40
2023-05-15T08:12:21.642Z,71.40
2023-05-15T08:13:21.620Z,71.50
2023-05-15T08:14:21.658Z,71.50
2023-05-15T08:15:21.640Z,71.50
2023-05-15T08:16:21.659Z,71.60
2023-05-15T08:17:21.591Z,71.70
2023-05-15T08:18:21.564Z,71.70
2023-05-15T08:19:21.604Z,71.70
2023-05-15T08:20:21.547Z,71.70
2023-05-15T08:21:21.575Z,71.50
2023-05-15T08:22:21.530Z,71.09
2023-05-15T08:23:21.519Z,71.00
2023-05-15T08:24:21.503Z,71.30
2023-05-15T08:25:21.584Z,71.20
2023-05-15T08:26:21.482Z,71.50
2023-05-15T08:27:21.469Z,71.40
2023-05-15T08:28:21.462Z,71.40
2023-05-15T08:29:21.449Z,71.20
2023-05-15T08:30:21.481Z,71.40
2023-05-15T08:31:21.606Z,71.40
2023-05-15T08:32:21.415Z,71.80
2023-05-15T08:33:21.407Z,71.80
2023-05-15T08:34:21.396Z,72.00
2023-05-15T08:35:21.384Z,72.00
2023-05-15T08:36:21.537Z,71.90
2023-05-15T08:37:21.402Z,72.00
2023-05-15T08:38:21.355Z,72.00
2023-05-15T08:39:21.377Z,72.00
2023-05-15T08:40:30.992Z,71.70
2023-05-15T08:41:38.770Z,71.80
2023-05-15T08:42:22.383Z,72.00
2023-05-15T08:43:21.334Z,72.10
2023-05-15T08:44:21.294Z,72.00
2023-05-15T08:45:21.276Z,72.10
2023-05-15T08:46:21.326Z,72.20
2023-05-15T08:47:21.306Z,72.30
2023-05-15T08:48:21.420Z,72.30
2023-05-15T08:49:21.247Z,72.30
2023-05-15T08:50:21.330Z,72.20
2023-05-15T08:51:21.261Z,72.10
2023-05-15T08:52:21.249Z,72.00
2023-05-15T08:53:21.197Z,72.00
2023-05-15T08:54:21.193Z,72.00
2023-05-15T08:55:21.190Z,71.90
2023-05-15T08:56:21.164Z,71.80
2023-05-15T08:57:21.233Z,71.80
2023-05-15T08:58:21.179Z,71.90
2023-05-15T08:59:21.137Z,71.90
2023-05-15T09:00:21.177Z,71.90
2023-05-15T09:01:21.164Z,72.00
2023-05-15T09:02:21.099Z,72.00
2023-05-15T09:03:21.220Z,72.10
2023-05-15T09:04:21.079Z,72.10
2023-05-15T09:05:21.088Z,72.10
2023-05-15T09:06:21.057Z,72.10
2023-05-15T09:07:21.063Z,72.00
2023-05-15T09:08:21.072Z,71.80
2023-05-15T09:09:21.037Z,71.80
2023-05-15T09:10:21.020Z,71.80
2023-05-15T09:11:21.166Z,71.80
2023-05-15T09:12:20.996Z,71.70
2023-05-15T09:13:21.010Z,71.70
2023-05-15T09:14:21.010Z,71.80
2023-05-15T09:15:21.002Z,71.80
2023-05-15T09:16:20.981Z,71.70
2023-05-15T09:17:20.945Z,71.70
2023-05-15T09:18:20.938Z,71.70
2023-05-15T09:19:21.060Z,71.60
2023-05-15T09:20:20.917Z,71.50
2023-05-15T09:21:20.899Z,71.40
2023-05-15T09:22:20.893Z,71.40
2023-05-15T09:23:20.921Z,71.40
2023-05-15T09:24:20.871Z,71.40
2023-05-15T09:25:20.897Z,71.40
2023-05-15T09:26:20.848Z,71.40
2023-05-15T09:27:20.837Z,71.30
2023-05-15T09:28:20.829Z,71.30
2023-05-15T09:29:20.881Z,71.40
2023-05-15T09:30:20.807Z,71.50
2023-05-15T09:31:20.841Z,71.60
2023-05-15T09:32:20.862Z,71.60
2023-05-15T09:33:20.823Z,71.30
2023-05-15T09:34:20.764Z,71.30
2023-05-15T09:35:20.762Z,71.50
2023-05-15T09:36:20.745Z,71.50
2023-05-15T09:37:20.730Z,71.20
2023-05-15T09:38:20.721Z,71.30
2023-05-15T09:39:20.751Z,71.40
2023-05-15T09:40:20.707Z,71.40
2023-05-15T09:41:20.694Z,71.40
2023-05-15T09:42:20.724Z,71.30
2023-05-15T09:43:20.666Z,71.30
2023-05-15T09:44:21.768Z,71.20
2023-05-15T09:45:20.709Z,71.20
2023-05-15T09:46:20.805Z,71.20
2023-05-15T09:47:20.802Z,71.20
2023-05-15T09:48:20.658Z,71.20
2023-05-15T09:49:20.611Z,71.30
2023-05-15T09:50:20.605Z,71.30
2023-05-15T09:51:20.585Z,71.20
2023-05-15T09:52:20.573Z,71.20
2023-05-15T09:53:21.312Z,71.20
2023-05-15T09:54:20.551Z,71.20
2023-05-15T09:55:20.546Z,71.09
2023-05-15T09:56:20.537Z,71.20
2023-05-15T09:57:20.571Z,71.09
2023-05-15T09:58:20.538Z,71.09
2023-05-15T09:59:20.500Z,71.09
2023-05-15T10:00:20.489Z,71.09
2023-05-15T10:01:20.550Z,71.09
2023-05-15T10:02:20.508Z,71.09
2023-05-15T10:03:20.462Z,71.00
2023-05-15T10:04:20.453Z,71.00
2023-05-15T10:05:28.685Z,70.89
2023-05-15T10:06:21.424Z,70.89
2023-05-15T10:07:20.419Z,70.89
2023-05-15T10:08:20.446Z,70.89
2023-05-15T10:09:20.402Z,70.79
2023-05-15T10:10:20.385Z,70.79
2023-05-15T10:11:20.379Z,70.79
2023-05-15T10:12:20.368Z,70.79
2023-05-15T10:13:20.355Z,70.79
2023-05-15T10:14:20.384Z,70.79
2023-05-15T10:15:20.329Z,70.79
2023-05-15T10:16:20.362Z,70.79
2023-05-15T10:17:20.331Z,70.79
2023-05-15T10:18:20.304Z,70.79
2023-05-15T10:19:20.436Z,70.79
2023-05-15T10:20:20.329Z,70.79
2023-05-15T10:21:20.267Z,70.79
2023-05-15T10:22:20.302Z,70.79
2023-05-15T10:23:20.247Z,70.79
2023-05-15T10:24:20.237Z,70.79
2023-05-15T10:25:20.234Z,70.79
2023-05-15T10:26:20.215Z,70.79
2023-05-15T10:27:20.207Z,70.79
2023-05-15T10:28:20.237Z,70.70
2023-05-15T10:29:20.187Z,70.70
2023-05-15T10:30:20.210Z,70.70
2023-05-15T10:31:20.185Z,70.70
2023-05-15T10:32:20.152Z,70.70
2023-05-15T10:33:20.166Z,70.79
2023-05-15T10:34:20.131Z,70.79
2023-05-15T10:35:20.163Z,70.79
2023-05-15T10:36:20.110Z,70.79
2023-05-15T10:37:20.103Z,70.89
2023-05-15T10:38:20.087Z,70.89
2023-05-15T10:39:20.077Z,71.00
2023-05-15T10:40:20.102Z,70.89
2023-05-15T10:41:20.111Z,70.89
2023-05-15T10:42:20.063Z,71.20
2023-05-15T10:43:21.372Z,71.30
2023-05-15T10:44:20.062Z,71.30
2023-05-15T10:45:20.035Z,71.20
2023-05-15T10:46:20.022Z,71.09
2023-05-15T10:47:20.163Z,71.09
2023-05-15T10:48:20.022Z,71.16
2023-05-15T10:49:19.994Z,71.06
2023-05-15T10:50:19.973Z,71.06
2023-05-15T10:51:19.953Z,70.96
2023-05-15T10:52:19.990Z,70.86
2023-05-15T10:53:19.930Z,70.96
2023-05-15T10:54:19.924Z,70.96
2023-05-15T10:55:19.913Z,70.86
2023-05-15T10:56:19.949Z,70.86
2023-05-15T10:57:19.886Z,70.86
2023-05-15T10:58:19.914Z,70.56
2023-05-15T10:59:19.905Z,70.56
2023-05-15T11:00:19.897Z,70.66
2023-05-15T11:01:19.921Z,70.76
2023-05-15T11:02:19.835Z,70.66
2023-05-15T11:03:19.936Z,70.66
2023-05-15T11:04:19.842Z,70.56
2023-05-15T11:05:19.876Z,70.56
2023-05-15T11:06:19.792Z,70.56
2023-05-15T11:07:19.820Z,70.46
2023-05-15T11:08:19.785Z,70.46
2023-05-15T11:09:19.763Z,70.36
2023-05-15T11:10:19.748Z,70.36
2023-05-15T11:11:19.778Z,70.26
2023-05-15T11:12:19.727Z,70.16
2023-05-15T11:13:19.756Z,70.16
2023-05-15T11:14:19.713Z,70.16
2023-05-15T11:15:19.694Z,70.06
2023-05-15T11:16:19.710Z,70.06
2023-05-15T11:17:19.687Z,69.96
2023-05-15T11:18:19.706Z,69.96
2023-05-15T11:19:19.718Z,69.96
2023-05-15T11:20:19.646Z,69.96
2023-05-15T11:21:19.655Z,69.96
2023-05-15T11:22:19.740Z,69.96
2023-05-15T11:23:19.656Z,69.96
2023-05-15T11:24:19.599Z,69.85
2023-05-15T11:25:19.622Z,69.76
2023-05-15T11:26:19.581Z,69.76
2023-05-15T11:27:19.615Z,69.65
2023-05-15T11:28:19.594Z,69.65
2023-05-15T11:29:19.544Z,69.65
2023-05-15T11:30:19.544Z,69.65
2023-05-15T11:31:19.591Z,69.56
2023-05-15T11:32:19.513Z,69.56
2023-05-15T11:33:19.546Z,69.56
2023-05-15T11:34:19.490Z,69.56
2023-05-15T11:35:19.524Z,69.65
2023-05-15T11:36:19.473Z,69.56
2023-05-15T11:37:19.487Z,69.45
2023-05-15T11:38:19.448Z,69.45
2023-05-15T11:39:19.446Z,69.45
2023-05-15T11:40:19.472Z,69.35
2023-05-15T11:41:19.432Z,69.35
2023-05-15T11:42:19.411Z,69.45
2023-05-15T11:43:19.443Z,69.45
2023-05-15T11:44:19.388Z,69.45
2023-05-15T11:45:19.379Z,69.45
2023-05-15T11:46:19.389Z,69.45
2023-05-15T11:47:19.356Z,69.35
2023-05-15T11:48:19.393Z,69.45
2023-05-15T11:49:19.430Z,69.45
2023-05-15T11:50:19.323Z,69.45
2023-05-15T11:51:19.351Z,69.45
2023-05-15T11:52:19.304Z,69.45
2023-05-15T11:53:19.319Z,69.45
2023-05-15T11:54:19.330Z,69.45
2023-05-15T11:55:19.278Z,69.45
2023-05-15T11:56:19.272Z,69.45
2023-05-15T11:57:19.251Z,69.45
2023-05-15T11:58:19.247Z,69.45
2023-05-15T11:59:19.230Z,69.45
2023-05-15T12:00:19.262Z,69.45
2023-05-15T12:01:19.209Z,69.45
2023-05-15T12:02:19.199Z,69.45
2023-05-15T12:03:19.387Z,69.45
2023-05-15T12:04:19.506Z,69.35
2023-05-15T12:05:19.220Z,69.35
2023-05-15T12:06:19.158Z,68.95
2023-05-15T12:07:19.150Z,69.15
2023-05-15T12:08:19.138Z,69.15
2023-05-15T12:09:19.195Z,69.15
2023-05-15T12:10:19.165Z,69.15
2023-05-15T12:11:19.107Z,69.15
2023-05-15T12:12:19.111Z,69.15
2023-05-15T12:13:19.092Z,69.15
2023-05-15T12:14:19.112Z,69.15
2023-05-15T12:15:19.072Z,69.15
2023-05-15T12:16:19.114Z,69.15
2023-05-15T12:17:19.041Z,69.15
2023-05-15T12:18:19.033Z,69.15
2023-05-15T12:19:19.142Z,69.06
2023-05-15T12:20:19.017Z,69.06
2023-05-15T12:21:19.046Z,69.06
2023-05-15T12:22:19.004Z,69.06
2023-05-15T12:23:19.027Z,69.06
2023-05-15T12:24:18.970Z,69.06
2023-05-15T12:25:19.001Z,68.95
2023-05-15T12:26:18.950Z,68.95
2023-05-15T12:27:18.986Z,68.95
2023-05-15T12:28:18.931Z,68.95
2023-05-15T12:29:18.962Z,68.95
2023-05-15T12:30:18.907Z,68.85
2023-05-15T12:31:19.022Z,68.85
2023-05-15T12:32:18.943Z,68.85
2023-05-15T12:33:18.878Z,68.85
2023-05-15T12:34:18.865Z,68.85
2023-05-15T12:35:18.894Z,68.85
2023-05-15T12:36:18.882Z,68.85
2023-05-15T12:37:18.838Z,68.85
2023-05-15T12:38:18.848Z,68.75
2023-05-15T12:39:18.818Z,68.65
2023-05-15T12:40:18.802Z,68.45
2023-05-15T12:41:18.854Z,68.45
2023-05-15T12:42:18.832Z,68.45
2023-05-15T12:43:18.769Z,68.45
2023-05-15T12:44:18.758Z,68.45
2023-05-15T12:45:18.770Z,68.45
2023-05-15T12:46:18.790Z,68.45
2023-05-15T12:47:18.766Z,68.45
2023-05-15T12:48:18.757Z,68.45
2023-05-15T12:49:18.706Z,68.45
2023-05-15T12:50:18.696Z,68.55
2023-05-15T12:51:18.687Z,68.55
2023-05-15T12:52:18.679Z,68.55